createdAt,value
2022-09-03T00:02:28.285Z,10.60
2022-09-03T00:05:14.455Z,10.60
2022-09-03T00:08:06.677Z,10.60
2022-09-03T00:10:56.731Z,10.50
2022-09-03T00:13:30.917Z,10.40
2022-09-03T00:15:59.870Z,10.70
2022-09-03T00:18:35.065Z,10.40
2022-09-03T00:21:08.702Z,10.40
2022-09-03T00:23:39.094Z,10.40
2022-09-03T00:26:17.469Z,10.40
2022-09-03T00:28:53.042Z,10.40
2022-09-03T00:31:27.521Z,10.40
2022-09-03T00:34:10.061Z,10.40
2022-09-03T00:36:45.945Z,10.30
2022-09-03T00:39:18.977Z,10.30
2022-09-03T00:42:08.669Z,10.30
2022-09-03T00:45:05.266Z,10.30
2022-09-03T00:48:00.306Z,10.30
2022-09-03T00:51:08.070Z,10.30
2022-09-03T00:54:09.217Z,10.30
2022-09-03T00:56:54.304Z,10.30
2022-09-03T00:59:48.816Z,10.30
2022-09-03T01:02:21.851Z,10.30
2022-09-03T01:05:22.888Z,10.30
2022-09-03T01:08:06.196Z,10.30
2022-09-03T01:10:57.763Z,10.30
2022-09-03T01:13:24.731Z,10.30
2022-09-03T01:16:19.703Z,10.30
2022-09-03T01:19:17.844Z,10.30
2022-09-03T01:22:05.253Z,10.30
2022-09-03T01:25:08.040Z,10.30
2022-09-03T01:27:44.044Z,10.20
2022-09-03T01:30:18.410Z,10.30
2022-09-03T01:33:00.977Z,10.30
2022-09-03T01:35:28.143Z,10.30
2022-09-03T01:38:11.769Z,10.30
2022-09-03T01:41:23.132Z,10.20
2022-09-03T01:44:13.074Z,10.20
2022-09-03T01:46:42.182Z,10.20
2022-09-03T01:49:34.867Z,10.20
2022-09-03T01:52:39.147Z,10.20
2022-09-03T01:55:13.661Z,10.20
2022-09-03T01:58:06.336Z,10.10
2022-09-03T02:00:35.978Z,10.10
2022-09-03T02:03:07.088Z,10.10
2022-09-03T02:05:35.754Z,10.10
2022-09-03T02:08:12.000Z,10.10
2022-09-03T02:10:55.254Z,10.10
2022-09-03T02:13:27.254Z,10.10
2022-09-03T02:15:57.952Z,10.10
2022-09-03T02:18:36.840Z,10.10
2022-09-03T02:21:05.319Z,10.00
2022-09-03T02:23:32.512Z,10.00
2022-09-03T02:26:02.574Z,10.00
2022-09-03T02:28:32.289Z,10.00
2022-09-03T02:30:59.485Z,10.00
2022-09-03T02:33:27.486Z,10.00
2022-09-03T02:35:55.315Z,9.90
2022-09-03T02:38:26.313Z,9.90
2022-09-03T02:40:56.661Z,9.80
2022-09-03T02:43:39.310Z,9.80
2022-09-03T02:46:10.137Z,9.80
2022-09-03T02:48:37.724Z,9.70
2022-09-03T02:51:14.304Z,9.70
2022-09-03T02:53:43.242Z,9.80
2022-09-03T02:56:10.796Z,9.70
2022-09-03T02:58:38.019Z,9.70
2022-09-03T03:01:06.205Z,9.90
2022-09-03T03:03:33.996Z,9.60
2022-09-03T03:06:04.671Z,9.60
2022-09-03T03:08:34.053Z,9.60
2022-09-03T03:11:02.145Z,9.60
2022-09-03T03:13:31.106Z,9.50
2022-09-03T03:16:03.898Z,9.50
2022-09-03T03:18:31.054Z,9.50
2022-09-03T03:21:03.317Z,9.50
2022-09-03T03:23:33.041Z,10.00
2022-09-03T03:26:09.229Z,9.50
2022-09-03T03:28:37.224Z,9.50
2022-09-03T03:31:08.175Z,9.50
2022-09-03T03:33:35.776Z,9.40
2022-09-03T03:36:30.980Z,9.40
2022-09-03T03:38:59.390Z,9.40
2022-09-03T03:41:31.360Z,9.30
2022-09-03T03:44:01.410Z,11.60
2022-09-03T03:46:33.899Z,9.30
2022-09-03T03:49:01.278Z,9.40
2022-09-03T03:51:29.164Z,9.30
2022-09-03T03:54:00.078Z,9.30
2022-09-03T03:56:29.317Z,9.40
2022-09-03T03:58:57.307Z,9.30
2022-09-03T04:01:26.913Z,9.30
2022-09-03T04:04:00.151Z,9.30
2022-09-03T04:06:28.249Z,9.30
2022-09-03T04:08:55.374Z,9.40
2022-09-03T04:11:24.064Z,9.40
2022-09-03T04:13:51.845Z,9.50
2022-09-03T04:16:22.167Z,9.80
2022-09-03T04:18:49.737Z,10.60
2022-09-03T04:21:20.756Z,11.80
2022-09-03T04:23:49.670Z,13.30
2022-09-03T04:26:19.305Z,15.30
2022-09-03T04:28:47.114Z,15.20
2022-09-03T04:31:20.514Z,16.20
2022-09-03T04:33:47.962Z,17.00
2022-09-03T04:36:17.581Z,17.90
2022-09-03T04:38:46.846Z,18.70
2022-09-03T04:41:16.661Z,19.70
2022-09-03T04:43:44.241Z,20.30
2022-09-03T04:46:17.618Z,21.40
2022-09-03T04:48:50.324Z,22.60
2022-09-03T04:51:20.554Z,23.80
2022-09-03T04:53:53.365Z,24.50
2022-09-03T04:56:23.717Z,25.40
2022-09-03T04:58:59.434Z,26.00
2022-09-03T05:01:30.811Z,26.70
2022-09-03T05:03:59.680Z,27.20
2022-09-03T05:06:28.338Z,27.90
2022-09-03T05:08:56.529Z,28.70
2022-09-03T05:11:26.130Z,29.40
2022-09-03T05:13:55.847Z,30.00
2022-09-03T05:16:24.502Z,30.60
2022-09-03T05:18:56.552Z,31.10
2022-09-03T05:21:24.651Z,31.50
2022-09-03T05:23:53.282Z,31.90
2022-09-03T05:26:23.611Z,32.30
2022-09-03T05:28:55.621Z,32.40
2022-09-03T05:31:26.454Z,32.10
2022-09-03T05:33:58.449Z,32.20
2022-09-03T05:36:29.296Z,32.40
2022-09-03T05:38:58.375Z,32.30
2022-09-03T05:41:26.593Z,32.50
2022-09-03T05:43:56.427Z,32.80
2022-09-03T05:46:32.346Z,33.40
2022-09-03T05:49:02.275Z,33.60
2022-09-03T05:51:30.611Z,34.60
2022-09-03T05:53:58.191Z,34.80
2022-09-03T05:56:27.981Z,35.30
2022-09-03T05:58:57.968Z,35.40
2022-09-03T06:01:31.113Z,34.90
2022-09-03T06:04:00.787Z,35.30
2022-09-03T06:06:29.912Z,35.10
2022-09-03T06:08:59.856Z,35.40
2022-09-03T06:11:29.521Z,36.20
2022-09-03T06:13:57.792Z,34.90
2022-09-03T06:16:30.620Z,35.10
2022-09-03T06:19:13.997Z,34.60
2022-09-03T06:21:42.998Z,35.10
2022-09-03T06:24:13.712Z,35.80
2022-09-03T06:26:43.006Z,36.30
2022-09-03T06:29:11.272Z,36.30
2022-09-03T06:31:39.756Z,35.60
2022-09-03T06:34:07.223Z,35.70
2022-09-03T06:36:34.676Z,35.40
2022-09-03T06:39:02.265Z,35.50
2022-09-03T06:41:33.691Z,35.70
2022-09-03T06:44:04.283Z,35.00
2022-09-03T06:46:37.951Z,34.90
2022-09-03T06:49:05.595Z,34.00
2022-09-03T06:51:33.597Z,33.30
2022-09-03T06:54:06.356Z,32.10
2022-09-03T06:56:39.981Z,30.10
2022-09-03T06:59:13.423Z,28.20
2022-09-03T07:01:43.687Z,26.80
2022-09-03T07:04:12.996Z,25.80
2022-09-03T07:06:42.246Z,24.90
2022-09-03T07:09:12.231Z,24.20
2022-09-03T07:11:47.853Z,23.70
2022-09-03T07:14:18.255Z,23.60
2022-09-03T07:16:46.307Z,23.30
2022-09-03T07:19:14.145Z,22.60
2022-09-03T07:21:48.116Z,22.40
2022-09-03T07:24:16.258Z,22.10
2022-09-03T07:26:49.690Z,22.00
2022-09-03T07:29:20.626Z,21.80
2022-09-03T07:31:51.991Z,21.70
2022-09-03T07:34:20.510Z,21.60
2022-09-03T07:36:52.476Z,21.50
2022-09-03T07:39:20.135Z,21.00
2022-09-03T07:41:47.833Z,20.90
2022-09-03T07:44:19.530Z,20.70
2022-09-03T07:46:48.029Z,20.50
2022-09-03T07:49:15.498Z,20.30
2022-09-03T07:51:42.982Z,20.30
2022-09-03T07:54:11.734Z,20.10
2022-09-03T07:56:40.743Z,20.20
2022-09-03T07:59:09.143Z,20.10
2022-09-03T08:01:38.406Z,19.90
2022-09-03T08:04:11.006Z,19.70
2022-09-03T08:06:39.007Z,19.70
2022-09-03T08:09:08.805Z,19.60
2022-09-03T08:11:41.590Z,19.50
2022-09-03T08:14:10.865Z,19.40
2022-09-03T08:16:41.902Z,19.60
2022-09-03T08:19:09.181Z,19.60
2022-09-03T08:21:36.579Z,20.30
2022-09-03T08:24:04.290Z,19.50
2022-09-03T08:26:37.332Z,19.60
2022-09-03T08:29:05.816Z,19.70
2022-09-03T08:31:34.130Z,19.60
2022-09-03T08:34:06.909Z,19.90
2022-09-03T08:36:36.936Z,19.60
2022-09-03T08:39:09.981Z,19.50
2022-09-03T08:42:08.363Z,19.50
2022-09-03T08:44:48.655Z,19.50
2022-09-03T08:47:30.000Z,19.50
2022-09-03T08:50:24.688Z,19.40
2022-09-03T08:53:11.537Z,19.30
2022-09-03T08:56:08.219Z,19.20
2022-09-03T08:58:44.007Z,19.10
2022-09-03T09:01:20.566Z,19.20
2022-09-03T09:04:21.987Z,19.00
2022-09-03T09:07:10.924Z,19.10
2022-09-03T09:09:41.800Z,19.00
2022-09-03T09:12:16.033Z,19.10
2022-09-03T09:14:55.970Z,19.20
2022-09-03T09:17:36.042Z,19.30
2022-09-03T09:20:19.357Z,19.20
2022-09-03T09:23:29.018Z,19.20
2022-09-03T09:25:58.927Z,19.10
2022-09-03T09:28:33.888Z,19.10
2022-09-03T09:31:03.206Z,19.00
2022-09-03T09:33:32.389Z,19.00
2022-09-03T09:36:09.260Z,19.00
2022-09-03T09:38:39.187Z,19.00
2022-09-03T09:41:14.540Z,19.00
2022-09-03T09:43:43.077Z,19.00
2022-09-03T09:46:16.537Z,19.10
2022-09-03T09:48:53.758Z,18.90
2022-09-03T09:51:21.116Z,19.00
2022-09-03T09:53:49.803Z,19.10
2022-09-03T09:56:25.171Z,18.90
2022-09-03T09:59:07.617Z,18.90
2022-09-03T10:01:42.609Z,18.90
2022-09-03T10:04:13.627Z,18.90
2022-09-03T10:06:58.984Z,18.90
2022-09-03T10:09:31.588Z,19.00
2022-09-03T10:12:19.668Z,19.00
2022-09-03T10:15:10.707Z,18.90
2022-09-03T10:17:54.533Z,18.90
2022-09-03T10:20:31.292Z,19.00
2022-09-03T10:23:09.906Z,19.00
2022-09-03T10:25:56.123Z,19.00
2022-09-03T10:28:27.489Z,18.90
2022-09-03T10:31:04.083Z,18.90
2022-09-03T10:34:04.806Z,19.40
2022-09-03T10:36:40.751Z,18.90
2022-09-03T10:39:21.767Z,18.90
2022-09-03T10:42:06.853Z,18.80
2022-09-03T10:44:55.112Z,18.80
2022-09-03T10:47:49.506Z,18.80
2022-09-03T10:50:26.308Z,18.70
2022-09-03T10:53:22.126Z,18.70
2022-09-03T10:56:17.885Z,18.70
2022-09-03T10:59:04.151Z,18.70
2022-09-03T11:01:52.262Z,18.90
2022-09-03T11:04:55.214Z,18.80
2022-09-03T11:07:28.821Z,18.90
2022-09-03T11:10:06.458Z,19.00
2022-09-03T11:12:40.811Z,19.10
2022-09-03T11:15:33.483Z,19.00
2022-09-03T11:18:15.017Z,18.90
2022-09-03T11:20:43.160Z,18.80
2022-09-03T11:23:15.503Z,18.80
2022-09-03T11:25:50.638Z,18.90
2022-09-03T11:28:32.900Z,18.90
2022-09-03T11:31:23.927Z,18.80
2022-09-03T11:34:19.640Z,18.90
2022-09-03T11:36:51.012Z,18.90
2022-09-03T11:39:37.272Z,18.90
2022-09-03T11:42:13.130Z,18.90
2022-09-03T11:44:51.749Z,19.00
2022-09-03T11:47:44.131Z,18.90
2022-09-03T11:50:24.303Z,18.90
2022-09-03T11:52:54.296Z,18.80
2022-09-03T11:55:26.982Z,18.90
2022-09-03T11:57:54.163Z,18.90
2022-09-03T12:00:24.879Z,18.90
2022-09-03T12:03:01.273Z,19.00
2022-09-03T12:05:28.354Z,19.00
2022-09-03T12:08:19.045Z,19.00
2022-09-03T12:10:54.574Z,18.90
2022-09-03T12:13:40.502Z,18.90
2022-09-03T12:16:13.284Z,18.90
2022-09-03T12:18:42.150Z,18.90
2022-09-03T12:21:10.773Z,19.80
2022-09-03T12:23:50.820Z,18.90
2022-09-03T12:26:27.440Z,18.70
2022-09-03T12:28:59.189Z,19.10
2022-09-03T12:31:30.202Z,18.90
2022-09-03T12:34:01.187Z,18.80
2022-09-03T12:36:52.978Z,19.90
2022-09-03T12:42:20.178Z,19.60
2022-09-03T12:44:47.348Z,18.70
2022-09-03T12:47:35.615Z,19.00
2022-09-03T12:50:14.192Z,18.70
2022-09-03T12:53:03.424Z,18.70
2022-09-03T12:55:40.442Z,18.70
2022-09-03T12:58:21.108Z,18.60
2022-09-03T13:01:00.807Z,18.60
2022-09-03T13:03:45.760Z,18.60
2022-09-03T13:06:16.345Z,18.70
2022-09-03T13:08:51.697Z,18.70
2022-09-03T13:11:21.779Z,18.70
2022-09-03T13:13:54.098Z,18.70
2022-09-03T13:16:21.352Z,18.70
2022-09-03T13:19:17.919Z,18.80
2022-09-03T13:22:06.878Z,18.70
2022-09-03T13:25:24.271Z,18.70
2022-09-03T13:28:01.622Z,18.70
2022-09-03T13:30:38.134Z,18.70
2022-09-03T13:33:20.539Z,18.60
2022-09-03T13:36:04.035Z,18.60
2022-09-03T13:38:50.632Z,18.60
2022-09-03T13:41:36.415Z,18.60
2022-09-03T13:44:08.462Z,18.60
2022-09-03T13:47:02.598Z,18.60
2022-09-03T13:50:15.584Z,18.60
2022-09-03T13:52:45.440Z,18.60
2022-09-03T13:55:25.620Z,18.70
2022-09-03T13:58:24.518Z,18.60
2022-09-03T14:01:13.660Z,18.60
2022-09-03T14:03:52.569Z,18.60
2022-09-03T14:06:42.503Z,18.60
2022-09-03T14:09:21.669Z,18.60
2022-09-03T14:12:15.686Z,18.60
2022-09-03T14:15:10.465Z,18.50
2022-09-03T14:17:42.733Z,18.50
2022-09-03T14:20:20.647Z,18.70
2022-09-03T14:22:59.818Z,18.50
2022-09-03T14:25:28.432Z,18.40
2022-09-03T14:28:12.613Z,18.40
2022-09-03T14:31:01.157Z,18.40
2022-09-03T14:34:13.906Z,18.40
2022-09-03T14:36:49.582Z,18.30
2022-09-03T14:39:28.368Z,18.30
2022-09-03T14:42:33.599Z,18.30
2022-09-03T14:45:13.435Z,18.30
2022-09-03T14:48:06.364Z,18.30
2022-09-03T14:50:55.429Z,18.30
2022-09-03T14:53:59.805Z,17.70
2022-09-03T14:56:50.019Z,18.20
2022-09-03T14:59:42.450Z,18.20
2022-09-03T15:02:33.762Z,18.20
2022-09-03T15:05:18.715Z,18.20
2022-09-03T15:07:51.616Z,18.10
2022-09-03T15:10:45.106Z,18.10
2022-09-03T15:13:20.791Z,18.10
2022-09-03T15:16:01.392Z,18.10
2022-09-03T15:18:52.609Z,18.10
2022-09-03T15:21:40.906Z,18.90
2022-09-03T15:24:32.595Z,18.00
2022-09-03T15:27:07.186Z,18.00
2022-09-03T15:29:58.388Z,18.00
2022-09-03T15:32:51.293Z,18.00
2022-09-03T15:35:30.899Z,18.40
2022-09-03T15:38:05.603Z,17.90
2022-09-03T15:40:49.004Z,17.80
2022-09-03T15:43:37.267Z,17.90
2022-09-03T15:46:14.846Z,17.80
2022-09-03T15:49:02.957Z,17.80
2022-09-03T15:52:01.356Z,17.70
2022-09-03T15:54:46.599Z,17.70
2022-09-03T15:57:25.986Z,17.60
2022-09-03T15:59:58.703Z,17.60
2022-09-03T16:02:45.992Z,17.50
2022-09-03T16:05:35.369Z,17.50
2022-09-03T16:08:20.989Z,17.40
2022-09-03T16:11:30.046Z,17.40
2022-09-03T16:14:04.286Z,17.30
2022-09-03T16:16:52.597Z,17.30
2022-09-03T16:19:58.952Z,17.20
2022-09-03T16:22:33.456Z,17.20
2022-09-03T16:25:08.724Z,17.10
2022-09-03T16:27:52.618Z,17.10
2022-09-03T16:30:50.841Z,17.00
2022-09-03T16:33:22.221Z,16.90
2022-09-03T16:36:02.744Z,16.90
2022-09-03T16:38:45.857Z,18.60
2022-09-03T16:41:13.161Z,16.70
2022-09-03T16:43:54.860Z,16.70
2022-09-03T16:46:50.611Z,16.60
2022-09-03T16:49:43.264Z,16.50
2022-09-03T16:52:39.183Z,16.50
2022-09-03T16:55:31.370Z,16.40
2022-09-03T16:58:17.995Z,16.30
2022-09-03T17:01:12.987Z,16.30
2022-09-03T17:04:05.155Z,16.20
2022-09-03T17:07:04.807Z,17.80
2022-09-03T17:09:42.427Z,15.50
2022-09-03T17:12:19.410Z,15.90
2022-09-03T17:14:46.794Z,15.80
2022-09-03T17:17:45.103Z,15.80
2022-09-03T17:20:37.319Z,15.70
2022-09-03T17:23:14.387Z,15.60
2022-09-03T17:26:13.519Z,16.70
2022-09-03T17:29:09.649Z,15.40
2022-09-03T17:31:37.044Z,15.30
2022-09-03T17:34:26.508Z,15.30
2022-09-03T17:37:07.036Z,15.20
2022-09-03T17:39:46.439Z,15.10
2022-09-03T17:42:38.522Z,15.00
2022-09-03T17:45:20.500Z,15.00
2022-09-03T17:48:25.336Z,14.90
2022-09-03T17:51:12.918Z,14.80
2022-09-03T17:53:52.460Z,14.70
2022-09-03T17:56:29.723Z,14.60
2022-09-03T17:59:02.969Z,14.50
2022-09-03T18:01:36.815Z,15.10
2022-09-03T18:04:38.737Z,14.40
2022-09-03T18:07:23.687Z,14.30
2022-09-03T18:10:09.975Z,14.20
2022-09-03T18:12:59.865Z,14.20
2022-09-03T18:15:55.051Z,14.10
2022-09-03T18:18:29.273Z,14.10
2022-09-03T18:21:29.290Z,14.00
2022-09-03T18:24:29.844Z,14.00
2022-09-03T18:27:20.112Z,13.90
2022-09-03T18:30:06.995Z,13.90
2022-09-03T18:32:52.903Z,13.80
2022-09-03T18:35:38.998Z,13.80
2022-09-03T18:38:25.005Z,13.70
2022-09-03T18:41:25.012Z,13.60
2022-09-03T18:44:34.253Z,13.90
2022-09-03T18:48:04.726Z,13.60
2022-09-03T18:51:19.736Z,13.60
2022-09-03T18:54:23.480Z,13.50
2022-09-03T18:57:12.026Z,13.50
2022-09-03T19:00:29.219Z,13.50
2022-09-03T19:03:41.484Z,13.40
2022-09-03T19:06:51.007Z,13.40
2022-09-03T19:10:07.158Z,13.40
2022-09-03T19:13:02.447Z,13.30
2022-09-03T19:16:09.794Z,14.50
2022-09-03T19:19:10.807Z,13.20
2022-09-03T19:22:22.412Z,13.20
2022-09-03T19:25:12.937Z,13.20
2022-09-03T19:28:21.614Z,13.10
2022-09-03T19:31:27.051Z,13.20
2022-09-03T19:34:21.953Z,13.00
2022-09-03T19:37:28.368Z,13.00
2022-09-03T19:40:35.912Z,13.00
2022-09-03T19:43:41.588Z,12.90
2022-09-03T19:46:58.816Z,12.90
2022-09-03T19:50:05.919Z,12.80
2022-09-03T19:53:14.062Z,12.70
2022-09-03T19:56:11.079Z,12.90
2022-09-03T19:59:04.329Z,12.70
2022-09-03T20:01:57.212Z,12.70
2022-09-03T20:04:53.463Z,12.70
2022-09-03T20:07:39.647Z,14.60
2022-09-03T20:10:24.396Z,13.00
2022-09-03T20:13:13.590Z,12.60
2022-09-03T20:16:07.449Z,12.60
2022-09-03T20:18:56.643Z,12.60
2022-09-03T20:21:25.930Z,12.50
2022-09-03T20:24:24.888Z,12.60
2022-09-03T20:27:10.942Z,12.50
2022-09-03T20:30:01.791Z,12.70
2022-09-03T20:32:54.982Z,12.50
2022-09-03T20:35:26.697Z,12.40
2022-09-03T20:38:31.065Z,12.50
2022-09-03T20:41:21.999Z,12.40
2022-09-03T20:44:06.073Z,12.40
2022-09-03T20:46:57.609Z,12.40
2022-09-03T20:49:40.619Z,12.40
2022-09-03T20:52:28.331Z,12.40
2022-09-03T20:55:21.427Z,12.40
2022-09-03T20:58:10.145Z,12.40
2022-09-03T21:00:48.095Z,12.40
2022-09-03T21:03:22.453Z,12.40
2022-09-03T21:06:14.098Z,12.40
2022-09-03T21:08:41.364Z,12.40
2022-09-03T21:11:29.437Z,12.30
2022-09-03T21:14:00.836Z,12.80
2022-09-03T21:16:42.973Z,12.30
2022-09-03T21:19:37.760Z,12.30
2022-09-03T21:22:24.403Z,12.20
2022-09-03T21:25:05.723Z,12.20
2022-09-03T21:27:41.760Z,12.30
2022-09-03T21:30:13.540Z,12.20
2022-09-03T21:32:50.441Z,12.30
2022-09-03T21:35:32.863Z,12.20
2022-09-03T21:38:13.363Z,12.20
2022-09-03T21:40:54.729Z,12.20
2022-09-03T21:43:46.452Z,12.20
2022-09-03T21:46:18.960Z,12.10
2022-09-03T21:49:03.109Z,12.10
2022-09-03T21:51:59.280Z,12.10
2022-09-03T21:54:33.544Z,12.10
2022-09-03T21:57:17.665Z,12.10
2022-09-03T22:00:18.989Z,12.10
2022-09-03T22:02:47.460Z,12.10
2022-09-03T22:05:18.504Z,12.10
2022-09-03T22:07:53.150Z,12.10
2022-09-03T22:10:31.847Z,12.10
2022-09-03T22:13:09.257Z,12.10
2022-09-03T22:15:38.094Z,12.10
2022-09-03T22:18:16.079Z,12.40
2022-09-03T22:20:53.535Z,12.00
2022-09-03T22:23:29.485Z,12.00
2022-09-03T22:26:07.474Z,12.00
2022-09-03T22:28:49.328Z,12.00
2022-09-03T22:31:40.085Z,12.00
2022-09-03T22:34:41.276Z,12.10
2022-09-03T22:37:17.443Z,12.00
2022-09-03T22:39:47.496Z,12.00
2022-09-03T22:42:34.128Z,13.60
2022-09-03T22:45:44.095Z,12.00
2022-09-03T22:48:32.458Z,11.90
2022-09-03T22:51:01.832Z,12.00
2022-09-03T22:53:50.661Z,11.90
2022-09-03T22:56:22.406Z,11.80
2022-09-03T22:58:58.642Z,11.90
2022-09-03T23:01:56.988Z,11.90
2022-09-03T23:04:39.819Z,11.90
2022-09-03T23:07:29.195Z,11.80
2022-09-03T23:10:04.811Z,11.80
2022-09-03T23:12:59.257Z,11.80
2022-09-03T23:15:30.655Z,11.80
2022-09-03T23:18:09.732Z,11.70
2022-09-03T23:20:41.806Z,11.70
2022-09-03T23:23:22.111Z,11.70
2022-09-03T23:26:04.379Z,11.60
2022-09-03T23:28:36.966Z,11.60
2022-09-03T23:31:30.409Z,11.60
2022-09-03T23:33:57.821Z,11.60
2022-09-03T23:37:05.604Z,11.70
2022-09-03T23:40:04.254Z,11.50
2022-09-03T23:43:07.084Z,11.50
2022-09-03T23:45:51.148Z,11.50
2022-09-03T23:48:30.742Z,11.40
2022-09-03T23:51:56.468Z,11.40
2022-09-03T23:54:29.058Z,11.40
2022-09-03T23:57:35.048Z,11.30
